Time;durP1;ratioP1;P1;durP2;ratioP2;P2;SDS_P1;SDS_P2;PMS_P1;PMS_P2;Temp;Humidity;BMP_temperature;BMP_pressure;BME280_temperature;BME280_humidity;BME280_pressure;Samples;Min_cycle;Max_cycle;Signal;HPM_P1;HPM_P2
2022/09/24 00:01:37;;;;;;;12.13;9.30;;;10.40;99.90;;;;;;4861527;29;20037;-61
2022/09/24 00:04:06;;;;;;;13.07;10.88;;;10.40;99.90;;;;;;4861593;29;20045;-61
2022/09/24 00:06:43;;;;;;;13.93;10.68;;;10.40;99.90;;;;;;4861386;29;20030;-60
2022/09/24 00:09:10;;;;;;;13.57;10.10;;;10.40;99.90;;;;;;4861181;29;20113;-56
2022/09/24 00:11:38;;;;;;;13.20;10.07;;;10.30;99.90;;;;;;4861480;29;20025;-58
2022/09/24 00:14:05;;;;;;;12.73;9.90;;;10.30;99.90;;;;;;4861201;29;20032;-56
2022/09/24 00:16:33;;;;;;;13.07;9.57;;;10.20;99.90;;;;;;4861225;29;20029;-58
2022/09/24 00:19:00;;;;;;;11.25;8.55;;;10.20;99.90;;;;;;4861115;29;20069;-60
2022/09/24 00:21:29;;;;;;;11.00;8.88;;;10.10;99.90;;;;;;4861070;29;20101;-58
2022/09/24 00:24:01;;;;;;;14.45;9.90;;;10.10;99.90;;;;;;4861214;29;20022;-62
2022/09/24 00:29:13;;;;;;;12.25;8.35;;;10.00;99.90;;;;;;4861125;29;20037;-60
2022/09/24 00:31:39;;;;;;;11.40;9.02;;;9.90;99.90;;;;;;4861089;29;20065;-57
2022/09/24 00:34:05;;;;;;;10.40;8.82;;;9.90;99.90;;;;;;4861265;29;20049;-63
2022/09/24 00:36:31;;;;;;;10.68;8.30;;;10.00;99.90;;;;;;4861126;29;20033;-59
2022/09/24 00:38:58;;;;;;;10.52;8.15;;;9.90;99.90;;;;;;4860697;29;20541;-62
2022/09/24 00:41:27;;;;;;;12.10;9.45;;;9.90;99.90;;;;;;4861110;29;20024;-59
2022/09/24 00:43:53;;;;;;;14.00;10.20;;;10.00;99.90;;;;;;4861208;29;20445;-57
2022/09/24 00:46:31;;;;;;;15.35;9.80;;;9.90;99.90;;;;;;4861111;29;20034;-56
2022/09/24 00:49:10;;;;;;;10.13;8.48;;;9.80;99.90;;;;;;4860883;29;20496;-57
2022/09/24 00:51:37;;;;;;;10.82;8.35;;;9.80;99.90;;;;;;4861156;29;20041;-57
2022/09/24 00:54:10;;;;;;;14.38;10.45;;;9.90;99.90;;;;;;4860981;29;20125;-59
2022/09/24 00:56:38;;;;;;;13.98;9.85;;;9.90;99.90;;;;;;4860765;29;20036;-58
2022/09/24 00:59:07;;;;;;;12.40;8.95;;;9.70;99.90;;;;;;4862520;29;20049;-59
2022/09/24 01:01:33;;;;;;;12.85;8.88;;;9.70;99.90;;;;;;4864782;29;20105;-61
2022/09/24 01:04:01;;;;;;;13.05;9.18;;;9.70;99.90;;;;;;4864410;29;20136;-54
2022/09/24 01:06:27;;;;;;;10.15;8.32;;;9.60;99.90;;;;;;4864761;29;20068;-62
2022/09/24 01:08:55;;;;;;;9.52;7.47;;;9.60;99.90;;;;;;4864286;29;20053;-62
2022/09/24 01:11:47;;;;;;;9.13;7.15;;;9.60;99.90;;;;;;4864335;29;20029;-61
2022/09/24 01:14:25;;;;;;;8.65;6.78;;;9.60;99.90;;;;;;4864415;29;20504;-61
2022/09/24 01:17:09;;;;;;;9.73;7.53;;;9.50;99.90;;;;;;4864243;29;20033;-60
2022/09/24 01:19:59;;;;;;;10.13;7.65;;;9.50;99.90;;;;;;4864238;29;20029;-59
2022/09/24 01:22:48;;;;;;;12.10;8.35;;;9.50;99.90;;;;;;4863918;29;20396;-63
2022/09/24 01:25:41;;;;;;;9.40;7.07;;;9.40;99.90;;;;;;4854193;29;20481;-60
2022/09/24 01:28:17;;;;;;;9.68;7.35;;;9.40;99.90;;;;;;4864103;29;20033;-63
2022/09/24 01:30:46;;;;;;;10.55;7.25;;;9.40;99.90;;;;;;4864029;29;20451;-62
2022/09/24 01:33:18;;;;;;;8.68;7.00;;;9.40;99.90;;;;;;4864011;29;20025;-59
2022/09/24 01:35:49;;;;;;;8.50;6.93;;;9.40;99.90;;;;;;4863863;29;20026;-59
2022/09/24 01:38:25;;;;;;;9.18;7.53;;;9.40;99.90;;;;;;4863972;29;20086;-61
2022/09/24 01:40:53;;;;;;;8.52;6.60;;;9.40;99.90;;;;;;4863698;29;20045;-57
2022/09/24 01:43:24;;;;;;;7.65;6.40;;;9.40;99.90;;;;;;4864124;29;20032;-64
2022/09/24 01:45:51;;;;;;;8.02;6.38;;;9.40;99.90;;;;;;4864037;29;20437;-62
2022/09/24 01:48:20;;;;;;;9.32;7.05;;;9.30;99.90;;;;;;4863688;29;20030;-61
2022/09/24 01:50:50;;;;;;;8.57;6.13;;;9.30;99.90;;;;;;4863743;29;20041;-58
2022/09/24 01:53:27;;;;;;;6.68;5.43;;;9.30;99.90;;;;;;4863704;29;20032;-64
2022/09/24 01:55:59;;;;;;;8.70;5.88;;;9.20;99.90;;;;;;4863636;29;20108;-59
2022/09/24 01:58:35;;;;;;;7.70;5.18;;;9.20;99.90;;;;;;4863503;29;20030;-62
2022/09/24 02:01:07;;;;;;;7.63;5.95;;;9.20;99.90;;;;;;4863473;29;20037;-58
2022/09/24 02:03:42;;;;;;;6.50;5.40;;;9.20;99.90;;;;;;4863460;29;20065;-63
2022/09/24 02:06:13;;;;;;;6.15;5.07;;;9.10;99.90;;;;;;4863192;29;20030;-62
2022/09/24 02:08:43;;;;;;;5.55;4.88;;;9.00;99.90;;;;;;4863620;29;20044;-62
2022/09/24 02:11:16;;;;;;;8.75;5.65;;;9.00;99.90;;;;;;4862391;29;20026;-61
2022/09/24 02:13:59;;;;;;;7.10;5.78;;;9.00;99.90;;;;;;4863185;29;20118;-61
2022/09/24 02:16:30;;;;;;;7.45;5.43;;;9.10;99.90;;;;;;4863571;29;20128;-62
2022/09/24 02:19:00;;;;;;;7.20;5.43;;;9.10;99.90;;;;;;4863140;29;20477;-59
2022/09/24 02:21:27;;;;;;;6.82;5.95;;;9.00;99.90;;;;;;4862987;29;20189;-55
2022/09/24 02:23:58;;;;;;;5.55;5.05;;;8.90;99.90;;;;;;4863173;29;20025;-62
2022/09/24 02:26:24;;;;;;;9.48;6.20;;;8.90;99.90;;;;;;4863381;29;20433;-59
2022/09/24 02:28:50;;;;;;;9.05;6.60;;;8.90;99.90;;;;;;4863280;29;20041;-62
2022/09/24 02:31:24;;;;;;;6.97;5.57;;;8.80;99.90;;;;;;4862936;29;20033;-60
2022/09/24 02:36:37;;;;;;;5.50;4.55;;;8.70;99.90;;;;;;4862686;29;20170;-61
2022/09/24 02:39:03;;;;;;;5.78;4.85;;;8.80;99.90;;;;;;4863060;29;20034;-58
2022/09/24 02:41:29;;;;;;;6.28;4.70;;;8.70;99.90;;;;;;4863064;29;20037;-60
2022/09/24 02:43:55;;;;;;;5.30;4.28;;;8.70;99.90;;;;;;4862768;29;20029;-63
2022/09/24 02:46:21;;;;;;;5.10;4.45;;;8.70;99.90;;;;;;4863080;29;20037;-61
2022/09/24 02:48:46;;;;;;;5.50;4.68;;;8.60;99.90;;;;;;4862938;29;20030;-59
2022/09/24 02:51:12;;;;;;;5.97;4.28;;;8.60;99.90;;;;;;4862406;29;20022;-60
2022/09/24 02:53:38;;;;;;;6.13;4.80;;;8.70;99.90;;;;;;4862783;29;20025;-59
2022/09/24 02:56:06;;;;;;;4.72;4.10;;;8.70;99.90;;;;;;4862799;29;20030;-59
2022/09/24 02:58:32;;;;;;;6.00;4.60;;;8.60;99.90;;;;;;4862487;29;20090;-57
2022/09/24 03:00:58;;;;;;;5.18;4.30;;;8.60;99.90;;;;;;4862326;29;20037;-61
2022/09/24 03:03:24;;;;;;;6.45;5.05;;;8.60;99.90;;;;;;4862385;29;20100;-61
2022/09/24 03:05:51;;;;;;;10.27;7.47;;;8.60;99.90;;;;;;4862475;29;20037;-57
2022/09/24 03:08:18;;;;;;;7.38;5.45;;;8.50;99.90;;;;;;4862533;29;20052;-55
2022/09/24 03:10:44;;;;;;;7.05;4.88;;;8.50;99.90;;;;;;4862263;29;20480;-60
2022/09/24 03:13:10;;;;;;;6.38;5.13;;;8.50;99.90;;;;;;4862472;29;20029;-58
2022/09/24 03:15:35;;;;;;;6.47;4.85;;;8.40;99.90;;;;;;4862177;29;20018;-62
2022/09/24 03:18:02;;;;;;;8.35;4.95;;;8.40;99.90;;;;;;4862175;29;20396;-58
2022/09/24 03:20:28;;;;;;;5.72;4.63;;;8.40;99.90;;;;;;4861742;29;20045;-62
2022/09/24 03:22:54;;;;;;;5.55;4.50;;;8.40;99.90;;;;;;4861678;29;20564;-62
2022/09/24 03:25:20;;;;;;;5.93;4.93;;;8.40;99.90;;;;;;4862128;29;20073;-61
2022/09/24 03:27:45;;;;;;;6.70;5.35;;;8.30;99.90;;;;;;4862256;29;20037;-59
2022/09/24 03:32:56;;;;;;;6.25;4.10;;;8.40;99.90;;;;;;4862129;29;20028;-55
2022/09/24 03:35:22;;;;;;;6.03;4.70;;;8.40;99.90;;;;;;4862113;29;20390;-61
2022/09/24 03:37:48;;;;;;;6.45;4.80;;;8.30;99.90;;;;;;4845192;29;20485;-58
2022/09/24 03:40:14;;;;;;;4.78;3.65;;;8.30;99.90;;;;;;4861711;29;20117;-61
2022/09/24 03:42:39;;;;;;;3.75;3.33;;;8.30;99.90;;;;;;4861751;29;20484;-60
2022/09/24 03:45:06;;;;;;;3.95;3.55;;;8.30;99.90;;;;;;4861607;29;20061;-64
2022/09/24 03:47:32;;;;;;;4.28;3.88;;;8.30;99.90;;;;;;4861386;29;20473;-56
2022/09/24 03:49:57;;;;;;;5.15;3.83;;;8.30;99.90;;;;;;4861925;29;20366;-60
2022/09/24 03:52:25;;;;;;;4.65;3.85;;;8.20;99.90;;;;;;4861511;29;20089;-61
2022/09/24 03:54:50;;;;;;;6.13;4.38;;;8.20;99.90;;;;;;4861817;29;20038;-60
2022/09/24 03:57:16;;;;;;;4.60;3.78;;;8.20;99.90;;;;;;4861582;29;20541;-61
2022/09/24 03:59:43;;;;;;;4.25;3.50;;;8.20;99.90;;;;;;4861244;29;20029;-63
2022/09/24 04:02:10;;;;;;;5.85;4.22;;;8.20;99.90;;;;;;4861200;29;20488;-60
2022/09/24 04:04:36;;;;;;;3.70;3.25;;;8.20;99.90;;;;;;4861670;29;20094;-58
2022/09/24 04:07:02;;;;;;;4.93;3.80;;;8.20;99.90;;;;;;4861361;29;20026;-59
2022/09/24 04:09:28;;;;;;;5.15;3.42;;;8.20;99.90;;;;;;4861323;29;20033;-61
2022/09/24 04:11:53;;;;;;;4.68;3.28;;;8.10;99.90;;;;;;4861542;29;20101;-60
2022/09/24 04:14:20;;;;;;;4.75;3.92;;;8.10;99.90;;;;;;4861269;29;20503;-59
2022/09/24 04:16:46;;;;;;;4.93;3.47;;;8.10;99.90;;;;;;4861035;29;20028;-61
2022/09/24 04:19:14;;;;;;;5.53;4.22;;;8.10;99.90;;;;;;4861140;29;20477;-63
2022/09/24 04:21:44;;;;;;;6.15;3.85;;;8.10;99.90;;;;;;4861045;29;20049;-59
2022/09/24 04:24:09;;;;;;;3.60;3.30;;;8.10;99.90;;;;;;4861029;29;20116;-61
2022/09/24 04:26:35;;;;;;;4.50;3.45;;;8.10;99.90;;;;;;4861411;29;20166;-61
2022/09/24 04:29:01;;;;;;;4.50;3.88;;;8.00;99.90;;;;;;4861061;29;20028;-59
2022/09/24 04:31:26;;;;;;;4.25;3.67;;;8.00;99.90;;;;;;4860816;29;20081;-60
2022/09/24 04:33:53;;;;;;;3.85;3.42;;;8.00;99.90;;;;;;4860268;29;20029;-64
2022/09/24 04:36:19;;;;;;;4.72;3.30;;;7.90;99.90;;;;;;4861070;29;20030;-63
2022/09/24 04:38:45;;;;;;;7.10;4.00;;;7.90;99.90;;;;;;4860889;29;20479;-61
2022/09/24 04:41:11;;;;;;;3.38;2.92;;;7.90;99.90;;;;;;4861184;29;20113;-59
2022/09/24 04:43:37;;;;;;;4.10;3.42;;;7.90;99.90;;;;;;4861307;29;20040;-60
2022/09/24 04:46:04;;;;;;;4.47;4.07;;;7.90;99.90;;;;;;4860886;29;20385;-60
2022/09/24 04:48:30;;;;;;;6.82;4.40;;;7.90;99.90;;;;;;4861085;29;20021;-57
2022/09/24 04:50:56;;;;;;;5.13;4.13;;;7.90;99.90;;;;;;4861078;29;20022;-59
2022/09/24 04:53:22;;;;;;;4.88;4.28;;;7.90;99.90;;;;;;4860731;29;20479;-61
2022/09/24 04:55:48;;;;;;;7.10;5.05;;;7.90;99.90;;;;;;4860928;29;20026;-59
2022/09/24 04:58:14;;;;;;;7.72;4.70;;;7.90;99.90;;;;;;4861104;29;20025;-57
2022/09/24 05:00:39;;;;;;;5.45;4.28;;;7.90;99.90;;;;;;4860506;29;20029;-60
2022/09/24 05:03:05;;;;;;;5.72;4.03;;;7.90;99.90;;;;;;4860749;29;20032;-59
2022/09/24 05:05:32;;;;;;;5.90;4.25;;;7.90;99.90;;;;;;4860746;29;20488;-61
2022/09/24 05:07:58;;;;;;;6.50;4.97;;;8.00;99.90;;;;;;4861102;29;20173;-61
2022/09/24 05:10:25;;;;;;;5.05;4.40;;;8.00;99.90;;;;;;4860920;29;20520;-62
2022/09/24 05:12:51;;;;;;;5.78;4.60;;;8.00;99.90;;;;;;4860808;29;20029;-58
2022/09/24 05:15:18;;;;;;;5.70;4.38;;;8.00;99.90;;;;;;4860529;29;20469;-58
2022/09/24 05:17:44;;;;;;;6.05;5.05;;;8.10;99.90;;;;;;4860556;29;20098;-60
2022/09/24 05:20:10;;;;;;;5.80;4.60;;;8.10;99.90;;;;;;4860552;29;20162;-59
2022/09/24 05:22:44;;;;;;;5.57;5.00;;;8.10;99.90;;;;;;4860521;29;20140;-58
2022/09/24 05:25:11;;;;;;;8.80;5.43;;;8.20;99.90;;;;;;4860815;29;20388;-58
2022/09/24 05:27:43;;;;;;;8.77;5.30;;;8.30;99.90;;;;;;4860618;29;20059;-62
2022/09/24 05:30:09;;;;;;;9.45;7.00;;;8.40;99.90;;;;;;4860327;29;20033;-59
2022/09/24 05:32:35;;;;;;;9.82;6.68;;;8.40;99.90;;;;;;4860940;29;20116;-58
2022/09/24 05:35:01;;;;;;;10.15;7.13;;;8.50;99.90;;;;;;4860577;29;20104;-60
2022/09/24 05:37:26;;;;;;;8.95;5.95;;;8.60;99.90;;;;;;4860636;29;20120;-57
2022/09/24 05:39:53;;;;;;;10.38;7.75;;;8.70;99.90;;;;;;4860606;29;20061;-60
2022/09/24 05:42:19;;;;;;;14.35;10.25;;;8.80;99.90;;;;;;4860530;29;20053;-62
2022/09/24 05:44:45;;;;;;;17.25;12.45;;;8.90;99.90;;;;;;4861591;29;20053;-62
2022/09/24 05:47:10;;;;;;;15.55;11.63;;;8.90;99.90;;;;;;4864032;29;20040;-59
2022/09/24 05:49:37;;;;;;;14.23;11.15;;;8.90;99.90;;;;;;4864038;29;20122;-59
2022/09/24 05:52:03;;;;;;;16.77;12.77;;;8.90;99.90;;;;;;4863687;29;20104;-60
2022/09/24 05:54:28;;;;;;;25.63;18.55;;;9.00;99.90;;;;;;4863580;29;20021;-58
2022/09/24 05:56:54;;;;;;;40.28;28.88;;;9.00;99.90;;;;;;4863635;29;20040;-58
2022/09/24 05:59:20;;;;;;;50.40;30.83;;;9.10;99.90;;;;;;4863428;29;20041;-61
2022/09/24 06:01:47;;;;;;;36.80;24.60;;;9.00;99.90;;;;;;4863780;29;20089;-58
2022/09/24 06:04:13;;;;;;;43.75;25.13;;;9.10;99.90;;;;;;4863519;29;20093;-62
2022/09/24 06:06:38;;;;;;;33.53;22.92;;;9.20;99.90;;;;;;4863518;29;20026;-54
2022/09/24 06:09:04;;;;;;;35.25;24.13;;;9.70;99.90;;;;;;4863431;29;20033;-59
2022/09/24 06:11:33;;;;;;;32.85;23.45;;;11.60;99.90;;;;;;4863568;29;20033;-57
2022/09/24 06:14:04;;;;;;;29.35;22.10;;;14.70;96.60;;;;;;4863467;29;20388;-58
2022/09/24 06:16:32;;;;;;;28.75;21.67;;;17.30;75.40;;;;;;4863312;29;20539;-57
2022/09/24 06:18:58;;;;;;;27.73;19.88;;;19.20;63.80;;;;;;4863457;29;20085;-62
2022/09/24 06:21:23;;;;;;;25.42;19.00;;;20.20;57.70;;;;;;4863147;29;20057;-61
2022/09/24 06:23:49;;;;;;;25.55;21.17;;;21.40;55.30;;;;;;4863219;29;20480;-63
2022/09/24 06:26:14;;;;;;;24.85;19.02;;;22.60;50.30;;;;;;4863055;29;20089;-63
2022/09/24 06:28:40;;;;;;;26.17;20.25;;;23.20;48.30;;;;;;4862993;29;20396;-62
2022/09/24 06:31:08;;;;;;;26.65;21.33;;;22.30;48.50;;;;;;4863284;29;20039;-58
2022/09/24 06:33:33;;;;;;;26.67;21.60;;;22.90;48.00;;;;;;4862920;29;20068;-59
2022/09/24 06:36:00;;;;;;;21.40;18.65;;;23.30;46.90;;;;;;4862935;29;20054;-59
2022/09/24 06:38:26;;;;;;;19.30;16.35;;;24.40;46.10;;;;;;4862867;29;20101;-62
2022/09/24 06:40:52;;;;;;;20.52;16.27;;;25.30;44.60;;;;;;4862790;29;20442;-62
2022/09/24 06:43:18;;;;;;;19.70;15.90;;;26.00;42.80;;;;;;4862783;29;20026;-59
2022/09/24 06:45:44;;;;;;;17.15;14.00;;;26.50;42.20;;;;;;4862794;29;20111;-62
2022/09/24 06:48:11;;;;;;;14.40;12.90;;;27.20;41.40;;;;;;4862628;29;20113;-62
2022/09/24 06:50:40;;;;;;;13.65;11.90;;;27.80;40.60;;;;;;4862812;29;20469;-62
2022/09/24 06:53:07;;;;;;;12.07;10.80;;;28.20;39.90;;;;;;4862583;29;20110;-61
2022/09/24 06:55:34;;;;;;;10.95;9.82;;;28.50;40.10;;;;;;4862213;29;20024;-60
2022/09/24 06:58:05;;;;;;;10.45;8.07;;;29.10;39.70;;;;;;4862265;29;20034;-62
2022/09/24 07:00:30;;;;;;;8.73;7.82;;;29.50;38.40;;;;;;4862433;29;20063;-61
2022/09/24 07:02:56;;;;;;;7.43;6.72;;;28.90;38.60;;;;;;4862344;29;20480;-61
2022/09/24 07:05:22;;;;;;;9.45;6.68;;;28.90;39.70;;;;;;4862575;29;20034;-60
2022/09/24 07:07:47;;;;;;;5.82;5.28;;;29.50;38.70;;;;;;4862498;29;20026;-59
2022/09/24 07:10:13;;;;;;;5.45;4.80;;;28.90;37.90;;;;;;4862092;29;20025;-58
2022/09/24 07:12:40;;;;;;;4.40;4.00;;;27.40;39.10;;;;;;4862451;29;20089;-58
2022/09/24 07:15:07;;;;;;;4.85;4.35;;;27.00;39.90;;;;;;4862322;29;20029;-61
2022/09/24 07:17:32;;;;;;;9.15;7.45;;;27.40;40.20;;;;;;4862415;29;20085;-63
2022/09/24 07:19:58;;;;;;;6.88;6.18;;;27.40;39.50;;;;;;4862234;29;20485;-59
2022/09/24 07:22:24;;;;;;;6.10;5.50;;;27.40;39.10;;;;;;4861979;29;20057;-63
2022/09/24 07:24:49;;;;;;;5.15;4.65;;;27.70;39.70;;;;;;4861936;29;20029;-59
2022/09/24 07:27:15;;;;;;;4.53;4.13;;;27.90;40.60;;;;;;4861992;29;20416;-59
2022/09/24 07:29:41;;;;;;;4.10;3.80;;;28.00;39.20;;;;;;4862177;29;20041;-59
2022/09/24 07:32:07;;;;;;;4.55;3.92;;;29.10;38.90;;;;;;4861969;29;20025;-59
2022/09/24 07:34:32;;;;;;;4.53;4.13;;;29.10;37.80;;;;;;4861844;29;20085;-63
2022/09/24 07:36:58;;;;;;;3.75;3.45;;;28.50;38.40;;;;;;4862131;29;20134;-62
2022/09/24 07:39:25;;;;;;;3.80;3.50;;;28.90;39.50;;;;;;4861694;29;20058;-60
2022/09/24 07:41:54;;;;;;;3.60;3.30;;;29.60;39.50;;;;;;4861985;29;20029;-56
2022/09/24 07:44:22;;;;;;;3.30;3.10;;;29.50;38.20;;;;;;4861711;29;20029;-57
2022/09/24 07:46:48;;;;;;;3.65;3.35;;;29.00;37.80;;;;;;4861950;29;20036;-62
2022/09/24 07:49:15;;;;;;;4.20;3.80;;;28.90;38.40;;;;;;4861796;29;20426;-62
2022/09/24 07:51:41;;;;;;;3.90;3.60;;;29.30;38.20;;;;;;4861679;29;20022;-60
2022/09/24 07:54:07;;;;;;;3.60;3.30;;;30.30;37.90;;;;;;4861951;29;20029;-61
2022/09/24 07:56:33;;;;;;;3.70;3.40;;;31.40;37.50;;;;;;4861528;29;20029;-59
2022/09/24 07:58:59;;;;;;;4.30;3.90;;;32.00;35.50;;;;;;4861469;29;20033;-59
2022/09/24 08:01:26;;;;;;;5.57;4.75;;;32.40;34.70;;;;;;4861551;29;20056;-60
2022/09/24 08:03:52;;;;;;;5.53;5.03;;;32.90;33.70;;;;;;4861305;29;20389;-61
2022/09/24 08:06:18;;;;;;;6.53;5.90;;;32.70;34.80;;;;;;4861580;29;20041;-58
2022/09/24 08:08:47;;;;;;;7.63;6.78;;;32.40;34.60;;;;;;4861400;29;20081;-62
2022/09/24 08:11:13;;;;;;;8.45;7.65;;;32.30;34.50;;;;;;4861249;29;20022;-61
2022/09/24 08:13:39;;;;;;;10.10;9.10;;;32.20;34.60;;;;;;4861518;29;20500;-61
2022/09/24 08:16:05;;;;;;;10.23;9.23;;;31.90;34.30;;;;;;4861494;29;20026;-61
2022/09/24 08:18:31;;;;;;;8.85;8.05;;;32.60;35.20;;;;;;4861273;29;20511;-60
2022/09/24 08:20:58;;;;;;;6.22;5.63;;;33.00;33.40;;;;;;4860793;29;20100;-60
2022/09/24 08:23:24;;;;;;;5.28;4.80;;;33.10;32.20;;;;;;4861400;29;20383;-59
2022/09/24 08:25:52;;;;;;;4.50;4.20;;;32.70;34.40;;;;;;4861115;29;20026;-60
2022/09/24 08:28:18;;;;;;;4.15;3.75;;;32.50;32.60;;;;;;4861303;29;20037;-63
2022/09/24 08:30:45;;;;;;;3.20;2.90;;;32.60;33.60;;;;;;4861354;29;20042;-59
2022/09/24 08:33:11;;;;;;;3.00;2.80;;;32.40;32.50;;;;;;4861327;29;20032;-61
2022/09/24 08:35:40;;;;;;;2.97;2.78;;;32.50;33.10;;;;;;4860982;29;20500;-60
2022/09/24 08:38:07;;;;;;;2.80;2.60;;;32.30;33.30;;;;;;4861005;29;20029;-62
2022/09/24 08:40:42;;;;;;;2.88;2.67;;;31.90;31.90;;;;;;4860913;29;20041;-57
2022/09/24 08:43:32;;;;;;;2.38;2.17;;;31.70;34.00;;;;;;4860985;29;20078;-60
2022/09/24 08:48:50;;;;;;;2.60;2.35;;;30.30;33.50;;;;;;4861211;29;20162;-60
2022/09/24 08:51:19;;;;;;;2.30;2.20;;;29.40;35.00;;;;;;4860829;29;20017;-60
2022/09/24 08:53:51;;;;;;;1.80;1.70;;;28.40;34.90;;;;;;4860809;29;20059;-59
2022/09/24 08:56:22;;;;;;;2.30;1.95;;;27.50;36.60;;;;;;4860844;29;20130;-61
2022/09/24 08:58:51;;;;;;;2.20;2.00;;;26.70;37.90;;;;;;4861006;29;20025;-61
2022/09/24 09:01:49;;;;;;;2.45;2.17;;;26.10;38.30;;;;;;4861006;29;20112;-62
2022/09/24 09:04:33;;;;;;;2.33;2.22;;;25.50;39.00;;;;;;4826008;29;20038;-59
2022/09/24 09:07:17;;;;;;;2.70;2.50;;;24.90;40.20;;;;;;4860504;29;20537;-60
2022/09/24 09:10:02;;;;;;;2.50;2.30;;;24.60;41.10;;;;;;4860855;29;20022;-62
2022/09/24 09:12:47;;;;;;;2.50;2.30;;;24.40;41.00;;;;;;4860674;29;20044;-60
2022/09/24 09:15:29;;;;;;;3.00;2.40;;;24.40;43.20;;;;;;4860637;29;20504;-60
2022/09/24 09:18:04;;;;;;;1.90;1.80;;;24.10;42.20;;;;;;4860865;29;20029;-57
2022/09/24 09:20:41;;;;;;;2.55;2.33;;;24.10;43.60;;;;;;4862658;29;20030;-61
2022/09/24 09:23:31;;;;;;;2.90;2.33;;;24.10;43.70;;;;;;4864166;29;20485;-60
2022/09/24 09:25:58;;;;;;;2.60;2.40;;;24.10;42.00;;;;;;4864205;29;20025;-60
2022/09/24 09:28:28;;;;;;;3.03;2.75;;;24.00;43.20;;;;;;4864047;29;20030;-59
2022/09/24 09:31:34;;;;;;;4.20;3.15;;;23.90;43.50;;;;;;4864029;29;20106;-59
2022/09/24 09:34:28;;;;;;;3.55;3.25;;;23.80;43.00;;;;;;4864010;29;20017;-63
2022/09/24 09:37:38;;;;;;;3.45;3.15;;;24.00;42.40;;;;;;4864063;29;20162;-62
2022/09/24 09:40:22;;;;;;;3.35;3.00;;;24.10;42.20;;;;;;4789036;30;20426;-58
2022/09/24 09:42:47;;;;;;;3.97;3.67;;;24.30;43.70;;;;;;4788952;30;20031;-60
2022/09/24 09:45:34;;;;;;;3.20;2.95;;;24.60;43.90;;;;;;4836116;29;20044;-61
2022/09/24 09:48:03;;;;;;;3.35;3.13;;;24.60;44.90;;;;;;4863852;29;20054;-59
2022/09/24 09:50:39;;;;;;;3.42;3.13;;;24.80;43.70;;;;;;4863863;29;20033;-60
2022/09/24 09:53:05;;;;;;;2.83;2.63;;;25.10;44.90;;;;;;4863812;29;20048;-59
2022/09/24 09:55:35;;;;;;;3.17;2.95;;;25.50;45.80;;;;;;4863841;29;20138;-62
2022/09/24 09:58:15;;;;;;;3.15;2.95;;;25.70;43.60;;;;;;4864139;29;20043;-59
2022/09/24 10:00:42;;;;;;;3.88;3.47;;;26.00;40.80;;;;;;4863485;29;20046;-62
2022/09/24 10:03:43;;;;;;;4.60;4.20;;;26.00;42.20;;;;;;4863559;29;20022;-60
2022/09/24 10:06:21;;;;;;;3.40;3.20;;;26.10;42.30;;;;;;4823743;29;20059;-62
2022/09/24 10:08:47;;;;;;;3.45;3.25;;;26.00;42.30;;;;;;4863732;29;20434;-62
2022/09/24 10:11:15;;;;;;;3.38;3.08;;;26.20;45.80;;;;;;4863375;29;20056;-61
2022/09/24 10:13:41;;;;;;;3.45;3.15;;;26.50;42.20;;;;;;4863652;29;20036;-63
2022/09/24 10:16:10;;;;;;;3.00;2.80;;;26.50;41.40;;;;;;4863325;29;20385;-60
2022/09/24 10:18:48;;;;;;;4.13;2.83;;;26.50;44.10;;;;;;4863238;29;20385;-63
2022/09/24 10:21:35;;;;;;;3.47;3.15;;;26.70;44.80;;;;;;4862726;29;20504;-60
2022/09/24 10:24:03;;;;;;;2.97;2.78;;;26.80;43.50;;;;;;4863115;29;20034;-60
2022/09/24 10:26:37;;;;;;;3.05;2.80;;;26.90;41.80;;;;;;4863096;29;20488;-63
2022/09/24 10:31:55;;;;;;;2.83;2.63;;;26.90;40.60;;;;;;4847177;29;20038;-62
2022/09/24 10:34:25;;;;;;;2.55;2.35;;;27.00;41.90;;;;;;4863035;29;20033;-61
2022/09/24 10:37:03;;;;;;;2.53;2.33;;;27.20;43.10;;;;;;4862890;29;20038;-62
2022/09/24 10:39:30;;;;;;;2.80;2.60;;;27.50;40.70;;;;;;4862826;29;20085;-62
2022/09/24 10:41:56;;;;;;;2.60;2.40;;;27.50;41.10;;;;;;4862733;29;20026;-62
2022/09/24 10:44:28;;;;;;;2.85;2.65;;;27.40;41.20;;;;;;4863085;29;20033;-61
2022/09/24 10:47:15;;;;;;;2.63;2.43;;;27.40;44.40;;;;;;4862881;29;20477;-62
2022/09/24 10:50:06;;;;;;;2.80;2.60;;;27.30;42.10;;;;;;4862976;29;20037;-63
2022/09/24 10:52:32;;;;;;;3.00;2.78;;;27.40;38.70;;;;;;4862696;29;20028;-62
2022/09/24 10:55:12;;;;;;;3.20;2.72;;;27.50;40.30;;;;;;4862714;29;20112;-60
2022/09/24 10:57:57;;;;;;;3.05;2.80;;;27.70;42.60;;;;;;4862795;29;20025;-63
2022/09/24 11:00:27;;;;;;;2.63;2.42;;;27.80;43.30;;;;;;4862471;29;20037;-62
2022/09/24 11:03:13;;;;;;;2.50;2.30;;;28.00;42.60;;;;;;4862520;29;20429;-61
2022/09/24 11:05:51;;;;;;;2.97;2.33;;;28.20;43.40;;;;;;4862748;29;20090;-62
2022/09/24 11:08:32;;;;;;;2.80;2.60;;;28.40;44.10;;;;;;4862584;29;20063;-62
2022/09/24 11:11:13;;;;;;;2.42;2.22;;;28.50;41.50;;;;;;4862389;29;20033;-62
2022/09/24 11:14:14;;;;;;;2.33;2.13;;;28.60;40.60;;;;;;4862362;29;20043;-60
2022/09/24 11:17:14;;;;;;;2.60;2.45;;;28.50;38.50;;;;;;4862426;29;20030;-60
2022/09/24 11:19:55;;;;;;;2.92;2.40;;;28.30;36.00;;;;;;4862162;29;20041;-60
2022/09/24 11:22:57;;;;;;;2.53;2.33;;;28.20;36.20;;;;;;4861906;29;20428;-59
2022/09/24 11:25:33;;;;;;;2.80;2.60;;;28.20;38.80;;;;;;4862375;29;20104;-59
2022/09/24 11:28:12;;;;;;;2.47;2.28;;;28.00;37.00;;;;;;4862087;29;20038;-61
2022/09/24 11:31:14;;;;;;;2.60;2.40;;;28.00;39.80;;;;;;4862051;29;20480;-59
2022/09/24 11:34:04;;;;;;;2.47;2.28;;;28.30;42.30;;;;;;4861785;29;20025;-60
2022/09/24 11:36:49;;;;;;;2.40;2.20;;;28.40;39.60;;;;;;4861797;29;20037;-60
2022/09/24 11:39:23;;;;;;;2.92;2.33;;;28.60;38.80;;;;;;4862069;29;20030;-61
2022/09/24 11:42:19;;;;;;;2.60;2.30;;;28.90;38.80;;;;;;4861612;29;20100;-62
2022/09/24 11:45:40;;;;;;;2.55;2.10;;;28.90;38.50;;;;;;4862031;29;20155;-60
2022/09/24 11:48:17;;;;;;;1.95;1.85;;;28.70;34.00;;;;;;4828155;29;20486;-62
2022/09/24 11:51:07;;;;;;;2.38;1.80;;;29.00;37.10;;;;;;4861718;29;20396;-59
2022/09/24 11:53:45;;;;;;;1.90;1.80;;;29.00;36.70;;;;;;4861846;29;20029;-62
2022/09/24 11:56:13;;;;;;;2.08;1.85;;;28.70;36.00;;;;;;4861836;29;20029;-59
2022/09/24 11:58:57;;;;;;;2.10;1.90;;;28.80;36.60;;;;;;4861492;29;20101;-61
2022/09/24 12:01:29;;;;;;;2.05;1.85;;;28.80;36.30;;;;;;4861583;29;20036;-61
2022/09/24 12:04:15;;;;;;;1.77;1.67;;;28.90;40.30;;;;;;4861344;29;20026;-63
2022/09/24 12:07:03;;;;;;;2.22;2.03;;;29.00;38.40;;;;;;4861353;29;20095;-61
2022/09/24 12:09:38;;;;;;;2.10;2.00;;;29.20;36.20;;;;;;4861429;29;20034;-59
2022/09/24 12:12:16;;;;;;;2.53;2.20;;;29.20;38.30;;;;;;4861314;29;20041;-62
2022/09/24 12:14:49;;;;;;;2.22;2.03;;;29.30;38.00;;;;;;4861547;29;20034;-59
2022/09/24 12:17:25;;;;;;;2.47;2.28;;;29.20;37.90;;;;;;4861380;29;20108;-63
2022/09/24 12:19:58;;;;;;;1.85;1.75;;;29.30;37.60;;;;;;4861154;29;20045;-60
2022/09/24 12:22:26;;;;;;;2.55;1.95;;;29.50;37.90;;;;;;4861109;29;20049;-60
2022/09/24 12:24:57;;;;;;;2.13;1.90;;;29.60;37.20;;;;;;4861418;29;20044;-61
2022/09/24 12:27:35;;;;;;;2.00;1.90;;;29.90;37.50;;;;;;4861362;29;20120;-61
2022/09/24 12:33:38;;;;;;;2.28;2.08;;;30.20;34.70;;;;;;4861185;29;20072;-59
2022/09/24 12:36:28;;;;;;;2.78;2.28;;;30.30;35.90;;;;;;4861115;29;20105;-61
2022/09/24 12:39:00;;;;;;;2.33;2.10;;;30.10;36.20;;;;;;4861107;29;20086;-60
2022/09/24 12:41:37;;;;;;;3.80;2.20;;;29.90;38.50;;;;;;4860978;29;20082;-62
2022/09/24 12:44:12;;;;;;;2.40;2.20;;;29.70;38.10;;;;;;4860685;29;20068;-62
2022/09/24 12:46:43;;;;;;;2.20;2.10;;;29.70;34.50;;;;;;4861080;29;20022;-61
2022/09/24 12:49:26;;;;;;;2.10;2.00;;;30.00;34.90;;;;;;4861060;29;20025;-61
2022/09/24 12:51:57;;;;;;;2.30;2.10;;;29.90;36.10;;;;;;4861175;29;20106;-59
2022/09/24 12:54:31;;;;;;;1.75;1.65;;;30.00;33.60;;;;;;4861812;29;20033;-59
2022/09/24 12:57:25;;;;;;;1.73;1.63;;;30.30;32.90;;;;;;4864733;29;20026;-60
2022/09/24 12:59:59;;;;;;;2.13;1.92;;;30.50;33.90;;;;;;4864411;29;20050;-60
2022/09/24 13:02:46;;;;;;;1.95;1.73;;;30.50;37.20;;;;;;4864569;29;20061;-63
2022/09/24 13:05:18;;;;;;;1.75;1.65;;;30.60;34.90;;;;;;4864571;29;20025;-60
2022/09/24 13:08:00;;;;;;;1.85;1.75;;;30.60;33.70;;;;;;4864526;29;20492;-62
2022/09/24 13:10:31;;;;;;;1.77;1.67;;;30.50;34.40;;;;;;4864690;29;20088;-61
2022/09/24 13:12:59;;;;;;;1.80;1.70;;;30.30;32.70;;;;;;4864500;29;20061;-62
2022/09/24 13:15:32;;;;;;;1.77;1.67;;;30.10;33.50;;;;;;4864313;29;20053;-60
2022/09/24 13:18:12;;;;;;;2.00;1.90;;;30.30;36.60;;;;;;4864306;29;20022;-62
2022/09/24 13:20:40;;;;;;;1.98;1.88;;;30.60;34.20;;;;;;4864038;29;20041;-62
2022/09/24 13:23:19;;;;;;;2.00;1.80;;;30.20;32.70;;;;;;4864410;29;20026;-61
2022/09/24 13:26:03;;;;;;;1.60;1.50;;;30.00;32.70;;;;;;4864233;29;20494;-63
2022/09/24 13:28:54;;;;;;;2.13;1.60;;;30.20;34.40;;;;;;4864161;29;20417;-63